sensor_id;sensor_type;location;lat;lon;timestamp;P1;durP1;ratioP1;P2;durP2;ratioP2
67721;SDS011;58309;45.292;11.820;2023-02-26T00:00:00;137.23;;;57.47;;
67721;SDS011;58309;45.292;11.820;2023-02-26T00:02:25;135.88;;;56.58;;
67721;SDS011;58309;45.292;11.820;2023-02-26T00:04:51;130.85;;;55.30;;
67721;SDS011;58309;45.292;11.820;2023-02-26T00:07:16;138.23;;;56.63;;
67721;SDS011;58309;45.292;11.820;2023-02-26T00:09:42;142.20;;;59.08;;
67721;SDS011;58309;45.292;11.820;2023-02-26T00:12:10;132.63;;;56.83;;
67721;SDS011;58309;45.292;11.820;2023-02-26T00:14:36;133.32;;;56.15;;
67721;SDS011;58309;45.292;11.820;2023-02-26T00:17:07;143.60;;;58.53;;
67721;SDS011;58309;45.292;11.820;2023-02-26T00:19:46;143.07;;;58.38;;
67721;SDS011;58309;45.292;11.820;2023-02-26T00:22:12;145.45;;;59.78;;
67721;SDS011;58309;45.292;11.820;2023-02-26T00:24:38;155.13;;;61.60;;
67721;SDS011;58309;45.292;11.820;2023-02-26T00:27:03;161.55;;;61.92;;
67721;SDS011;58309;45.292;11.820;2023-02-26T00:29:29;172.00;;;67.50;;
67721;SDS011;58309;45.292;11.820;2023-02-26T00:31:55;176.40;;;67.60;;
67721;SDS011;58309;45.292;11.820;2023-02-26T00:34:21;176.45;;;67.65;;
67721;SDS011;58309;45.292;11.820;2023-02-26T00:42:22;182.57;;;68.50;;
67721;SDS011;58309;45.292;11.820;2023-02-26T00:44:47;176.73;;;67.47;;
67721;SDS011;58309;45.292;11.820;2023-02-26T00:47:20;178.82;;;68.55;;
67721;SDS011;58309;45.292;11.820;2023-02-26T00:55:13;176.02;;;66.80;;
67721;SDS011;58309;45.292;11.820;2023-02-26T00:57:38;174.73;;;67.00;;
67721;SDS011;58309;45.292;11.820;2023-02-26T01:00:04;187.05;;;71.47;;
67721;SDS011;58309;45.292;11.820;2023-02-26T01:02:32;166.38;;;67.68;;
67721;SDS011;58309;45.292;11.820;2023-02-26T01:04:59;173.98;;;68.63;;
67721;SDS011;58309;45.292;11.820;2023-02-26T01:07:25;178.57;;;70.03;;
67721;SDS011;58309;45.292;11.820;2023-02-26T01:09:54;178.88;;;69.15;;
67721;SDS011;58309;45.292;11.820;2023-02-26T01:12:20;176.02;;;68.30;;
67721;SDS011;58309;45.292;11.820;2023-02-26T01:14:45;192.32;;;72.00;;
67721;SDS011;58309;45.292;11.820;2023-02-26T01:22:28;168.02;;;67.25;;
67721;SDS011;58309;45.292;11.820;2023-02-26T01:28:08;169.30;;;65.70;;
67721;SDS011;58309;45.292;11.820;2023-02-26T01:30:34;176.35;;;66.38;;
67721;SDS011;58309;45.292;11.820;2023-02-26T01:33:01;147.38;;;60.70;;
67721;SDS011;58309;45.292;11.820;2023-02-26T01:35:49;28.23;;;9.32;;
67721;SDS011;58309;45.292;11.820;2023-02-26T01:46:38;16.85;;;2.65;;
67721;SDS011;58309;45.292;11.820;2023-02-26T01:49:15;14.48;;;2.60;;
67721;SDS011;58309;45.292;11.820;2023-02-26T01:51:46;22.63;;;2.88;;
67721;SDS011;58309;45.292;11.820;2023-02-26T01:54:33;16.65;;;2.53;;
67721;SDS011;58309;45.292;11.820;2023-02-26T01:59:32;26.10;;;4.07;;
67721;SDS011;58309;45.292;11.820;2023-02-26T02:02:01;18.52;;;2.72;;
67721;SDS011;58309;45.292;11.820;2023-02-26T02:04:29;21.48;;;2.50;;
67721;SDS011;58309;45.292;11.820;2023-02-26T02:06:56;26.17;;;2.72;;
67721;SDS011;58309;45.292;11.820;2023-02-26T02:09:22;13.02;;;2.22;;
67721;SDS011;58309;45.292;11.820;2023-02-26T02:16:55;24.85;;;2.90;;
67721;SDS011;58309;45.292;11.820;2023-02-26T02:22:13;17.02;;;3.17;;
67721;SDS011;58309;45.292;11.820;2023-02-26T02:33:46;16.60;;;2.85;;
67721;SDS011;58309;45.292;11.820;2023-02-26T02:36:33;13.73;;;2.60;;
67721;SDS011;58309;45.292;11.820;2023-02-26T02:39:27;14.23;;;2.00;;
67721;SDS011;58309;45.292;11.820;2023-02-26T02:42:06;18.27;;;2.30;;
67721;SDS011;58309;45.292;11.820;2023-02-26T02:44:42;16.10;;;2.15;;
67721;SDS011;58309;45.292;11.820;2023-02-26T02:47:13;13.65;;;2.50;;
67721;SDS011;58309;45.292;11.820;2023-02-26T02:49:42;13.23;;;2.03;;
67721;SDS011;58309;45.292;11.820;2023-02-26T02:52:14;13.25;;;2.47;;
67721;SDS011;58309;45.292;11.820;2023-02-26T02:54:46;16.13;;;1.90;;
67721;SDS011;58309;45.292;11.820;2023-02-26T02:57:21;13.10;;;2.00;;
67721;SDS011;58309;45.292;11.820;2023-02-26T02:59:53;9.43;;;1.70;;
67721;SDS011;58309;45.292;11.820;2023-02-26T03:05:01;10.98;;;2.05;;
67721;SDS011;58309;45.292;11.820;2023-02-26T03:07:27;7.05;;;1.40;;
67721;SDS011;58309;45.292;11.820;2023-02-26T03:09:57;6.50;;;1.67;;
67721;SDS011;58309;45.292;11.820;2023-02-26T03:12:24;9.07;;;1.42;;
67721;SDS011;58309;45.292;11.820;2023-02-26T03:14:51;5.97;;;1.02;;
67721;SDS011;58309;45.292;11.820;2023-02-26T03:17:26;9.38;;;1.58;;
67721;SDS011;58309;45.292;11.820;2023-02-26T03:33:15;3.55;;;1.00;;
67721;SDS011;58309;45.292;11.820;2023-02-26T03:38:32;4.97;;;1.35;;
67721;SDS011;58309;45.292;11.820;2023-02-26T03:41:01;0.90;;;0.90;;
67721;SDS011;58309;45.292;11.820;2023-02-26T03:46:12;1.52;;;0.95;;
67721;SDS011;58309;45.292;11.820;2023-02-26T03:48:40;1.33;;;0.98;;
67721;SDS011;58309;45.292;11.820;2023-02-26T03:51:09;3.30;;;1.00;;
67721;SDS011;58309;45.292;11.820;2023-02-26T03:53:42;2.30;;;1.17;;
67721;SDS011;58309;45.292;11.820;2023-02-26T03:58:42;3.30;;;0.80;;
67721;SDS011;58309;45.292;11.820;2023-02-26T04:01:10;2.25;;;0.80;;
67721;SDS011;58309;45.292;11.820;2023-02-26T04:06:24;1.85;;;0.95;;
67721;SDS011;58309;45.292;11.820;2023-02-26T04:08:50;0.70;;;0.70;;
67721;SDS011;58309;45.292;11.820;2023-02-26T04:11:17;0.80;;;0.77;;
67721;SDS011;58309;45.292;11.820;2023-02-26T04:13:45;1.67;;;1.05;;
67721;SDS011;58309;45.292;11.820;2023-02-26T04:16:11;0.98;;;0.98;;
67721;SDS011;58309;45.292;11.820;2023-02-26T04:18:37;0.80;;;0.80;;
67721;SDS011;58309;45.292;11.820;2023-02-26T04:21:03;2.15;;;0.90;;
67721;SDS011;58309;45.292;11.820;2023-02-26T04:23:29;1.40;;;0.80;;
67721;SDS011;58309;45.292;11.820;2023-02-26T04:25:55;0.65;;;0.65;;
67721;SDS011;58309;45.292;11.820;2023-02-26T04:28:20;3.28;;;0.93;;
67721;SDS011;58309;45.292;11.820;2023-02-26T04:30:46;0.60;;;0.60;;
67721;SDS011;58309;45.292;11.820;2023-02-26T04:33:12;2.05;;;0.80;;
67721;SDS011;58309;45.292;11.820;2023-02-26T04:35:39;0.82;;;0.80;;
67721;SDS011;58309;45.292;11.820;2023-02-26T04:38:05;0.65;;;0.65;;
67721;SDS011;58309;45.292;11.820;2023-02-26T04:40:31;0.75;;;0.75;;
67721;SDS011;58309;45.292;11.820;2023-02-26T04:42:57;4.82;;;0.80;;
67721;SDS011;58309;45.292;11.820;2023-02-26T04:45:22;0.93;;;0.90;;
67721;SDS011;58309;45.292;11.820;2023-02-26T04:47:48;0.70;;;0.70;;
67721;SDS011;58309;45.292;11.820;2023-02-26T04:50:13;0.73;;;0.73;;
67721;SDS011;58309;45.292;11.820;2023-02-26T04:52:39;0.80;;;0.80;;
67721;SDS011;58309;45.292;11.820;2023-02-26T04:55:05;0.80;;;0.80;;
67721;SDS011;58309;45.292;11.820;2023-02-26T04:57:31;0.70;;;0.70;;
67721;SDS011;58309;45.292;11.820;2023-02-26T04:59:57;0.70;;;0.70;;
67721;SDS011;58309;45.292;11.820;2023-02-26T05:02:23;0.80;;;0.80;;
67721;SDS011;58309;45.292;11.820;2023-02-26T05:04:48;1.25;;;0.88;;
67721;SDS011;58309;45.292;11.820;2023-02-26T05:07:14;1.00;;;1.00;;
67721;SDS011;58309;45.292;11.820;2023-02-26T05:09:39;0.90;;;0.90;;
67721;SDS011;58309;45.292;11.820;2023-02-26T05:12:05;2.42;;;0.85;;
67721;SDS011;58309;45.292;11.820;2023-02-26T05:14:30;1.17;;;0.73;;
67721;SDS011;58309;45.292;11.820;2023-02-26T05:16:56;0.73;;;0.73;;
67721;SDS011;58309;45.292;11.820;2023-02-26T05:19:22;1.00;;;1.00;;
67721;SDS011;58309;45.292;11.820;2023-02-26T05:21:48;0.90;;;0.90;;
67721;SDS011;58309;45.292;11.820;2023-02-26T05:24:14;0.70;;;0.70;;
67721;SDS011;58309;45.292;11.820;2023-02-26T05:26:40;1.10;;;0.80;;
67721;SDS011;58309;45.292;11.820;2023-02-26T05:29:05;0.80;;;0.80;;
67721;SDS011;58309;45.292;11.820;2023-02-26T05:31:31;4.78;;;0.90;;
67721;SDS011;58309;45.292;11.820;2023-02-26T05:33:57;0.75;;;0.75;;
67721;SDS011;58309;45.292;11.820;2023-02-26T05:36:22;1.80;;;1.60;;
67721;SDS011;58309;45.292;11.820;2023-02-26T05:38:48;3.15;;;1.10;;
67721;SDS011;58309;45.292;11.820;2023-02-26T05:41:13;0.70;;;0.70;;
67721;SDS011;58309;45.292;11.820;2023-02-26T05:43:39;0.80;;;0.80;;
67721;SDS011;58309;45.292;11.820;2023-02-26T05:46:05;0.80;;;0.80;;
67721;SDS011;58309;45.292;11.820;2023-02-26T05:48:31;0.90;;;0.90;;
67721;SDS011;58309;45.292;11.820;2023-02-26T05:50:57;0.95;;;0.95;;
67721;SDS011;58309;45.292;11.820;2023-02-26T05:53:22;0.80;;;0.80;;
67721;SDS011;58309;45.292;11.820;2023-02-26T05:55:48;0.70;;;0.70;;
67721;SDS011;58309;45.292;11.820;2023-02-26T05:58:14;0.70;;;0.70;;
67721;SDS011;58309;45.292;11.820;2023-02-26T06:00:40;0.70;;;0.70;;
67721;SDS011;58309;45.292;11.820;2023-02-26T06:03:06;0.80;;;0.80;;
67721;SDS011;58309;45.292;11.820;2023-02-26T06:05:32;0.95;;;0.95;;
67721;SDS011;58309;45.292;11.820;2023-02-26T06:07:57;2.03;;;0.75;;
67721;SDS011;58309;45.292;11.820;2023-02-26T06:10:23;0.70;;;0.70;;
67721;SDS011;58309;45.292;11.820;2023-02-26T06:12:48;0.80;;;0.80;;
67721;SDS011;58309;45.292;11.820;2023-02-26T06:15:14;0.85;;;0.80;;
67721;SDS011;58309;45.292;11.820;2023-02-26T06:17:40;0.80;;;0.80;;
67721;SDS011;58309;45.292;11.820;2023-02-26T06:20:05;0.70;;;0.70;;
67721;SDS011;58309;45.292;11.820;2023-02-26T06:22:31;0.70;;;0.70;;
67721;SDS011;58309;45.292;11.820;2023-02-26T06:24:57;0.70;;;0.70;;
67721;SDS011;58309;45.292;11.820;2023-02-26T06:27:23;0.80;;;0.80;;
67721;SDS011;58309;45.292;11.820;2023-02-26T06:29:49;0.88;;;0.88;;
67721;SDS011;58309;45.292;11.820;2023-02-26T06:32:14;0.80;;;0.80;;
67721;SDS011;58309;45.292;11.820;2023-02-26T06:34:40;0.80;;;0.80;;
67721;SDS011;58309;45.292;11.820;2023-02-26T06:37:05;0.85;;;0.85;;
67721;SDS011;58309;45.292;11.820;2023-02-26T06:39:31;0.90;;;0.90;;
67721;SDS011;58309;45.292;11.820;2023-02-26T06:41:57;0.80;;;0.80;;
67721;SDS011;58309;45.292;11.820;2023-02-26T06:44:22;0.90;;;0.90;;
67721;SDS011;58309;45.292;11.820;2023-02-26T06:46:48;0.80;;;0.80;;
67721;SDS011;58309;45.292;11.820;2023-02-26T06:49:13;1.33;;;0.82;;
67721;SDS011;58309;45.292;11.820;2023-02-26T06:51:39;0.82;;;0.82;;
67721;SDS011;58309;45.292;11.820;2023-02-26T06:54:05;4.03;;;1.00;;
67721;SDS011;58309;45.292;11.820;2023-02-26T06:56:30;1.00;;;1.00;;
67721;SDS011;58309;45.292;11.820;2023-02-26T06:58:56;3.03;;;1.10;;
67721;SDS011;58309;45.292;11.820;2023-02-26T07:01:21;0.90;;;0.90;;
67721;SDS011;58309;45.292;11.820;2023-02-26T07:03:48;1.20;;;1.10;;
67721;SDS011;58309;45.292;11.820;2023-02-26T07:06:14;0.85;;;0.85;;
67721;SDS011;58309;45.292;11.820;2023-02-26T07:08:40;1.13;;;1.13;;
67721;SDS011;58309;45.292;11.820;2023-02-26T07:11:06;1.42;;;1.33;;
67721;SDS011;58309;45.292;11.820;2023-02-26T07:13:32;3.38;;;1.20;;
67721;SDS011;58309;45.292;11.820;2023-02-26T07:15:58;1.00;;;1.00;;
67721;SDS011;58309;45.292;11.820;2023-02-26T07:18:24;1.05;;;1.05;;
67721;SDS011;58309;45.292;11.820;2023-02-26T07:20:49;2.13;;;1.00;;
67721;SDS011;58309;45.292;11.820;2023-02-26T07:23:15;2.90;;;1.05;;
67721;SDS011;58309;45.292;11.820;2023-02-26T07:25:41;1.00;;;1.00;;
67721;SDS011;58309;45.292;11.820;2023-02-26T07:28:06;1.00;;;1.00;;
67721;SDS011;58309;45.292;11.820;2023-02-26T07:30:32;1.00;;;0.90;;
67721;SDS011;58309;45.292;11.820;2023-02-26T07:32:58;0.90;;;0.90;;
67721;SDS011;58309;45.292;11.820;2023-02-26T07:35:25;1.02;;;1.00;;
67721;SDS011;58309;45.292;11.820;2023-02-26T07:37:50;0.82;;;0.82;;
67721;SDS011;58309;45.292;11.820;2023-02-26T07:40:16;1.00;;;1.00;;
67721;SDS011;58309;45.292;11.820;2023-02-26T07:42:42;1.48;;;1.10;;
67721;SDS011;58309;45.292;11.820;2023-02-26T07:45:08;0.93;;;0.93;;
67721;SDS011;58309;45.292;11.820;2023-02-26T07:47:34;2.75;;;1.00;;
67721;SDS011;58309;45.292;11.820;2023-02-26T07:50:00;0.80;;;0.80;;
67721;SDS011;58309;45.292;11.820;2023-02-26T07:52:26;0.90;;;0.90;;
67721;SDS011;58309;45.292;11.820;2023-02-26T07:54:52;0.98;;;0.98;;
67721;SDS011;58309;45.292;11.820;2023-02-26T07:57:18;1.10;;;1.10;;
67721;SDS011;58309;45.292;11.820;2023-02-26T07:59:44;0.93;;;0.93;;
67721;SDS011;58309;45.292;11.820;2023-02-26T08:02:10;1.10;;;1.10;;
67721;SDS011;58309;45.292;11.820;2023-02-26T08:04:37;0.90;;;0.90;;
67721;SDS011;58309;45.292;11.820;2023-02-26T08:07:03;0.90;;;0.90;;
67721;SDS011;58309;45.292;11.820;2023-02-26T08:09:28;2.10;;;1.23;;
67721;SDS011;58309;45.292;11.820;2023-02-26T08:11:54;0.90;;;0.90;;
67721;SDS011;58309;45.292;11.820;2023-02-26T08:14:20;0.90;;;0.90;;
67721;SDS011;58309;45.292;11.820;2023-02-26T08:16:47;1.00;;;1.00;;
67721;SDS011;58309;45.292;11.820;2023-02-26T08:19:13;1.10;;;1.00;;
67721;SDS011;58309;45.292;11.820;2023-02-26T08:21:39;1.15;;;1.13;;
67721;SDS011;58309;45.292;11.820;2023-02-26T08:24:04;1.10;;;1.10;;
67721;SDS011;58309;45.292;11.820;2023-02-26T08:26:30;1.88;;;1.13;;
67721;SDS011;58309;45.292;11.820;2023-02-26T08:28:58;0.90;;;0.90;;
67721;SDS011;58309;45.292;11.820;2023-02-26T08:31:24;0.85;;;0.85;;
67721;SDS011;58309;45.292;11.820;2023-02-26T08:33:52;1.00;;;1.00;;
67721;SDS011;58309;45.292;11.820;2023-02-26T08:36:17;1.10;;;1.00;;
67721;SDS011;58309;45.292;11.820;2023-02-26T08:38:43;1.48;;;1.35;;
67721;SDS011;58309;45.292;11.820;2023-02-26T08:41:09;2.40;;;1.98;;
67721;SDS011;58309;45.292;11.820;2023-02-26T08:43:34;2.75;;;2.35;;
67721;SDS011;58309;45.292;11.820;2023-02-26T08:46:00;1.55;;;1.42;;
67721;SDS011;58309;45.292;11.820;2023-02-26T08:48:26;1.38;;;1.30;;
67721;SDS011;58309;45.292;11.820;2023-02-26T08:50:52;1.25;;;1.20;;
67721;SDS011;58309;45.292;11.820;2023-02-26T08:53:17;1.40;;;1.30;;
67721;SDS011;58309;45.292;11.820;2023-02-26T08:55:46;1.33;;;1.20;;
67721;SDS011;58309;45.292;11.820;2023-02-26T08:58:12;1.00;;;1.00;;
67721;SDS011;58309;45.292;11.820;2023-02-26T09:00:38;1.10;;;1.00;;
67721;SDS011;58309;45.292;11.820;2023-02-26T09:03:03;1.27;;;1.20;;
67721;SDS011;58309;45.292;11.820;2023-02-26T09:05:29;1.25;;;1.25;;
67721;SDS011;58309;45.292;11.820;2023-02-26T09:07:54;0.93;;;0.93;;
67721;SDS011;58309;45.292;11.820;2023-02-26T09:10:20;1.17;;;1.10;;
67721;SDS011;58309;45.292;11.820;2023-02-26T09:12:46;1.10;;;1.10;;
67721;SDS011;58309;45.292;11.820;2023-02-26T09:15:12;2.25;;;1.33;;
67721;SDS011;58309;45.292;11.820;2023-02-26T09:17:39;1.20;;;1.20;;
67721;SDS011;58309;45.292;11.820;2023-02-26T09:20:05;1.20;;;1.10;;
67721;SDS011;58309;45.292;11.820;2023-02-26T09:22:33;4.55;;;2.58;;
67721;SDS011;58309;45.292;11.820;2023-02-26T09:24:59;1.80;;;1.52;;
67721;SDS011;58309;45.292;11.820;2023-02-26T09:27:24;2.00;;;1.65;;
67721;SDS011;58309;45.292;11.820;2023-02-26T09:29:50;1.40;;;1.40;;
67721;SDS011;58309;45.292;11.820;2023-02-26T09:32:16;2.10;;;1.40;;
67721;SDS011;58309;45.292;11.820;2023-02-26T09:34:41;1.63;;;1.55;;
67721;SDS011;58309;45.292;11.820;2023-02-26T09:37:07;1.50;;;1.40;;
67721;SDS011;58309;45.292;11.820;2023-02-26T09:39:34;1.40;;;1.30;;
67721;SDS011;58309;45.292;11.820;2023-02-26T09:45:39;2.22;;;1.40;;
67721;SDS011;58309;45.292;11.820;2023-02-26T09:48:06;4.13;;;1.23;;
67721;SDS011;58309;45.292;11.820;2023-02-26T09:50:40;2.25;;;1.50;;
67721;SDS011;58309;45.292;11.820;2023-02-26T09:55:57;3.25;;;1.67;;
67721;SDS011;58309;45.292;11.820;2023-02-26T09:58:28;1.38;;;1.10;;
67721;SDS011;58309;45.292;11.820;2023-02-26T10:09:06;1.20;;;1.20;;
67721;SDS011;58309;45.292;11.820;2023-02-26T10:11:46;1.40;;;1.30;;
67721;SDS011;58309;45.292;11.820;2023-02-26T10:14:31;1.50;;;1.40;;
67721;SDS011;58309;45.292;11.820;2023-02-26T10:19:53;6.40;;;2.30;;
67721;SDS011;58309;45.292;11.820;2023-02-26T10:25:50;1.70;;;1.30;;
67721;SDS011;58309;45.292;11.820;2023-02-26T10:36:25;1.52;;;1.40;;
67721;SDS011;58309;45.292;11.820;2023-02-26T10:39:02;2.97;;;1.80;;
67721;SDS011;58309;45.292;11.820;2023-02-26T10:41:40;1.85;;;1.38;;
67721;SDS011;58309;45.292;11.820;2023-02-26T10:44:12;2.00;;;1.40;;
67721;SDS011;58309;45.292;11.820;2023-02-26T10:52:30;8.35;;;2.55;;
67721;SDS011;58309;45.292;11.820;2023-02-26T10:57:50;5.25;;;2.10;;
67721;SDS011;58309;45.292;11.820;2023-02-26T11:00:29;3.47;;;2.20;;
67721;SDS011;58309;45.292;11.820;2023-02-26T11:02:55;1.70;;;1.60;;
67721;SDS011;58309;45.292;11.820;2023-02-26T11:05:23;4.45;;;1.60;;
67721;SDS011;58309;45.292;11.820;2023-02-26T11:13:27;2.95;;;1.40;;
67721;SDS011;58309;45.292;11.820;2023-02-26T11:15:56;3.90;;;1.35;;
67721;SDS011;58309;45.292;11.820;2023-02-26T11:18:52;2.58;;;1.40;;
67721;SDS011;58309;45.292;11.820;2023-02-26T11:21:29;5.18;;;1.58;;
67721;SDS011;58309;45.292;11.820;2023-02-26T11:26:31;2.70;;;1.67;;
67721;SDS011;58309;45.292;11.820;2023-02-26T11:28:59;1.63;;;1.30;;
67721;SDS011;58309;45.292;11.820;2023-02-26T11:31:25;2.25;;;1.90;;
67721;SDS011;58309;45.292;11.820;2023-02-26T11:33:52;2.63;;;1.60;;
67721;SDS011;58309;45.292;11.820;2023-02-26T11:36:23;3.25;;;1.90;;
67721;SDS011;58309;45.292;11.820;2023-02-26T11:38:53;2.75;;;1.80;;
67721;SDS011;58309;45.292;11.820;2023-02-26T11:41:22;7.32;;;1.55;;
67721;SDS011;58309;45.292;11.820;2023-02-26T11:44:06;3.75;;;1.40;;
67721;SDS011;58309;45.292;11.820;2023-02-26T11:46:38;2.05;;;1.50;;
67721;SDS011;58309;45.292;11.820;2023-02-26T11:49:09;6.13;;;1.70;;
67721;SDS011;58309;45.292;11.820;2023-02-26T11:51:41;1.50;;;1.40;;
67721;SDS011;58309;45.292;11.820;2023-02-26T11:54:20;5.03;;;1.90;;
67721;SDS011;58309;45.292;11.820;2023-02-26T11:56:48;2.53;;;1.50;;
67721;SDS011;58309;45.292;11.820;2023-02-26T11:59:19;4.05;;;1.60;;
67721;SDS011;58309;45.292;11.820;2023-02-26T12:01:46;5.00;;;1.92;;
67721;SDS011;58309;45.292;11.820;2023-02-26T12:04:14;7.18;;;1.90;;
67721;SDS011;58309;45.292;11.820;2023-02-26T12:06:45;4.45;;;1.52;;
67721;SDS011;58309;45.292;11.820;2023-02-26T12:09:12;1.52;;;1.35;;
67721;SDS011;58309;45.292;11.820;2023-02-26T12:47:46;6.30;;;1.83;;
67721;SDS011;58309;45.292;11.820;2023-02-26T12:59:09;5.95;;;2.05;;
67721;SDS011;58309;45.292;11.820;2023-02-26T13:08:05;6.05;;;2.10;;
67721;SDS011;58309;45.292;11.820;2023-02-26T13:10:40;6.22;;;2.28;;
67721;SDS011;58309;45.292;11.820;2023-02-26T13:21:30;11.30;;;1.98;;
67721;SDS011;58309;45.292;11.820;2023-02-26T13:24:11;8.55;;;2.17;;
67721;SDS011;58309;45.292;11.820;2023-02-26T13:26:41;5.43;;;2.53;;
67721;SDS011;58309;45.292;11.820;2023-02-26T13:32:26;7.15;;;2.35;;
67721;SDS011;58309;45.292;11.820;2023-02-26T13:34:57;7.40;;;2.30;;
67721;SDS011;58309;45.292;11.820;2023-02-26T13:37:37;10.88;;;2.65;;
67721;SDS011;58309;45.292;11.820;2023-02-26T13:46:03;10.60;;;2.20;;
67721;SDS011;58309;45.292;11.820;2023-02-26T13:51:38;12.82;;;2.45;;
67721;SDS011;58309;45.292;11.820;2023-02-26T13:54:06;11.83;;;3.13;;
67721;SDS011;58309;45.292;11.820;2023-02-26T14:01:55;8.25;;;2.00;;
67721;SDS011;58309;45.292;11.820;2023-02-26T14:04:51;5.53;;;1.83;;
67721;SDS011;58309;45.292;11.820;2023-02-26T14:10:43;8.70;;;2.20;;
67721;SDS011;58309;45.292;11.820;2023-02-26T14:16:29;5.95;;;2.03;;
67721;SDS011;58309;45.292;11.820;2023-02-26T14:21:53;6.78;;;2.38;;
67721;SDS011;58309;45.292;11.820;2023-02-26T14:24:31;2.78;;;1.90;;
67721;SDS011;58309;45.292;11.820;2023-02-26T14:29:42;4.30;;;2.30;;
67721;SDS011;58309;45.292;11.820;2023-02-26T14:32:32;4.82;;;2.08;;
67721;SDS011;58309;45.292;11.820;2023-02-26T14:35:44;4.30;;;2.10;;
67721;SDS011;58309;45.292;11.820;2023-02-26T14:38:02;3.00;;;1.95;;
67721;SDS011;58309;45.292;11.820;2023-02-26T14:40:39;3.80;;;2.00;;
67721;SDS011;58309;45.292;11.820;2023-02-26T14:46:16;4.82;;;1.90;;
67721;SDS011;58309;45.292;11.820;2023-02-26T14:48:42;3.22;;;1.90;;
67721;SDS011;58309;45.292;11.820;2023-02-26T14:54:09;3.85;;;2.00;;
67721;SDS011;58309;45.292;11.820;2023-02-26T14:56:43;5.15;;;2.35;;
67721;SDS011;58309;45.292;11.820;2023-02-26T15:02:08;3.80;;;1.95;;
67721;SDS011;58309;45.292;11.820;2023-02-26T15:04:55;3.28;;;2.45;;
67721;SDS011;58309;45.292;11.820;2023-02-26T15:07:37;3.95;;;1.80;;
67721;SDS011;58309;45.292;11.820;2023-02-26T15:10:12;5.90;;;2.03;;
67721;SDS011;58309;45.292;11.820;2023-02-26T15:18:30;3.65;;;2.08;;
67721;SDS011;58309;45.292;11.820;2023-02-26T15:21:22;5.80;;;1.95;;
67721;SDS011;58309;45.292;11.820;2023-02-26T15:24:10;3.95;;;2.15;;
67721;SDS011;58309;45.292;11.820;2023-02-26T15:26:45;10.23;;;2.93;;
67721;SDS011;58309;45.292;11.820;2023-02-26T15:29:14;3.50;;;2.35;;
67721;SDS011;58309;45.292;11.820;2023-02-26T15:31:41;4.28;;;2.20;;
67721;SDS011;58309;45.292;11.820;2023-02-26T15:34:18;4.63;;;2.53;;
67721;SDS011;58309;45.292;11.820;2023-02-26T15:36:46;4.45;;;2.47;;
67721;SDS011;58309;45.292;11.820;2023-02-26T15:39:14;5.78;;;3.00;;
67721;SDS011;58309;45.292;11.820;2023-02-26T15:41:42;15.23;;;3.05;;
67721;SDS011;58309;45.292;11.820;2023-02-26T15:44:12;7.63;;;3.40;;
67721;SDS011;58309;45.292;11.820;2023-02-26T15:46:41;4.55;;;2.38;;
67721;SDS011;58309;45.292;11.820;2023-02-26T15:52:12;5.72;;;2.67;;
67721;SDS011;58309;45.292;11.820;2023-02-26T15:54:42;7.85;;;2.47;;
67721;SDS011;58309;45.292;11.820;2023-02-26T15:57:11;8.20;;;2.85;;
67721;SDS011;58309;45.292;11.820;2023-02-26T15:59:41;8.02;;;2.65;;
67721;SDS011;58309;45.292;11.820;2023-02-26T16:02:15;10.18;;;2.80;;
67721;SDS011;58309;45.292;11.820;2023-02-26T16:04:45;5.28;;;2.08;;
67721;SDS011;58309;45.292;11.820;2023-02-26T16:07:11;10.60;;;2.80;;
67721;SDS011;58309;45.292;11.820;2023-02-26T16:09:38;3.50;;;2.33;;
67721;SDS011;58309;45.292;11.820;2023-02-26T16:12:16;5.88;;;2.30;;
67721;SDS011;58309;45.292;11.820;2023-02-26T16:15:06;6.32;;;2.17;;
67721;SDS011;58309;45.292;11.820;2023-02-26T16:17:39;7.78;;;2.35;;
67721;SDS011;58309;45.292;11.820;2023-02-26T16:20:17;7.22;;;2.10;;
67721;SDS011;58309;45.292;11.820;2023-02-26T16:22:56;9.43;;;2.03;;
67721;SDS011;58309;45.292;11.820;2023-02-26T16:28:13;11.57;;;2.40;;
67721;SDS011;58309;45.292;11.820;2023-02-26T16:30:41;6.50;;;2.50;;
67721;SDS011;58309;45.292;11.820;2023-02-26T16:33:10;8.13;;;2.63;;
67721;SDS011;58309;45.292;11.820;2023-02-26T16:35:41;4.10;;;2.10;;
67721;SDS011;58309;45.292;11.820;2023-02-26T16:40:58;6.57;;;2.15;;
67721;SDS011;58309;45.292;11.820;2023-02-26T16:46:14;8.88;;;1.92;;
67721;SDS011;58309;45.292;11.820;2023-02-26T16:51:50;5.13;;;2.00;;
67721;SDS011;58309;45.292;11.820;2023-02-26T16:54:22;2.28;;;1.98;;
67721;SDS011;58309;45.292;11.820;2023-02-26T16:56:54;6.18;;;2.22;;
67721;SDS011;58309;45.292;11.820;2023-02-26T16:59:24;9.35;;;2.70;;
67721;SDS011;58309;45.292;11.820;2023-02-26T17:04:39;3.65;;;1.75;;
67721;SDS011;58309;45.292;11.820;2023-02-26T17:07:16;1.70;;;1.60;;
67721;SDS011;58309;45.292;11.820;2023-02-26T17:10:04;2.80;;;1.75;;
67721;SDS011;58309;45.292;11.820;2023-02-26T17:12:41;1.98;;;1.58;;
67721;SDS011;58309;45.292;11.820;2023-02-26T17:15:17;5.18;;;2.00;;
67721;SDS011;58309;45.292;11.820;2023-02-26T17:17:46;3.08;;;2.00;;
67721;SDS011;58309;45.292;11.820;2023-02-26T17:20:12;4.57;;;2.20;;
67721;SDS011;58309;45.292;11.820;2023-02-26T17:22:38;2.58;;;2.10;;
67721;SDS011;58309;45.292;11.820;2023-02-26T17:25:09;3.05;;;2.30;;
67721;SDS011;58309;45.292;11.820;2023-02-26T17:27:41;3.95;;;2.08;;
67721;SDS011;58309;45.292;11.820;2023-02-26T17:30:10;4.70;;;2.75;;
67721;SDS011;58309;45.292;11.820;2023-02-26T17:32:40;4.82;;;1.83;;
67721;SDS011;58309;45.292;11.820;2023-02-26T17:35:07;3.17;;;1.90;;
67721;SDS011;58309;45.292;11.820;2023-02-26T17:37:33;1.95;;;1.85;;
67721;SDS011;58309;45.292;11.820;2023-02-26T17:40:00;3.88;;;1.70;;
67721;SDS011;58309;45.292;11.820;2023-02-26T17:42:27;3.72;;;2.05;;
67721;SDS011;58309;45.292;11.820;2023-02-26T17:44:52;1.80;;;1.70;;
67721;SDS011;58309;45.292;11.820;2023-02-26T17:47:24;3.47;;;3.15;;
67721;SDS011;58309;45.292;11.820;2023-02-26T17:52:18;2.53;;;2.10;;
67721;SDS011;58309;45.292;11.820;2023-02-26T17:54:44;5.57;;;2.30;;
67721;SDS011;58309;45.292;11.820;2023-02-26T17:57:17;2.72;;;2.08;;
67721;SDS011;58309;45.292;11.820;2023-02-26T17:59:44;2.40;;;1.88;;
67721;SDS011;58309;45.292;11.820;2023-02-26T18:02:20;2.53;;;1.83;;
67721;SDS011;58309;45.292;11.820;2023-02-26T18:04:49;2.20;;;2.00;;
67721;SDS011;58309;45.292;11.820;2023-02-26T18:07:16;1.80;;;1.70;;
67721;SDS011;58309;45.292;11.820;2023-02-26T18:09:42;2.13;;;1.85;;
67721;SDS011;58309;45.292;11.820;2023-02-26T18:12:16;2.08;;;1.63;;
67721;SDS011;58309;45.292;11.820;2023-02-26T18:14:44;1.98;;;1.85;;
67721;SDS011;58309;45.292;11.820;2023-02-26T18:17:14;1.80;;;1.70;;
67721;SDS011;58309;45.292;11.820;2023-02-26T18:19:43;1.65;;;1.55;;
67721;SDS011;58309;45.292;11.820;2023-02-26T18:22:16;1.60;;;1.50;;
67721;SDS011;58309;45.292;11.820;2023-02-26T18:24:44;2.58;;;1.45;;
67721;SDS011;58309;45.292;11.820;2023-02-26T18:27:14;1.55;;;1.52;;
67721;SDS011;58309;45.292;11.820;2023-02-26T18:29:44;1.60;;;1.50;;
67721;SDS011;58309;45.292;11.820;2023-02-26T18:32:13;1.97;;;1.73;;
67721;SDS011;58309;45.292;11.820;2023-02-26T18:34:41;1.88;;;1.70;;
67721;SDS011;58309;45.292;11.820;2023-02-26T18:37:11;1.50;;;1.40;;
67721;SDS011;58309;45.292;11.820;2023-02-26T18:39:42;2.10;;;1.70;;
67721;SDS011;58309;45.292;11.820;2023-02-26T18:42:18;2.33;;;1.90;;
67721;SDS011;58309;45.292;11.820;2023-02-26T18:44:46;1.60;;;1.50;;